Time;durP1;ratioP1;P1;durP2;ratioP2;P2;SDS_P1;SDS_P2;PMS_P1;PMS_P2;Temp;Humidity;BMP_temperature;BMP_pressure;BME280_temperature;BME280_humidity;BME280_pressure;Samples;Min_cycle;Max_cycle;Signal;HPM_P1;HPM_P2
2023/01/25 00:01:46;;;;;;;47.35;28.98;;;0.00;99.90;;;;;;5064387;28;20561;-36
2023/01/25 00:04:12;;;;;;;43.03;26.27;;;0.10;99.90;;;;;;5066096;28;20764;-36
2023/01/25 00:06:38;;;;;;;44.72;27.40;;;0.00;99.90;;;;;;5067822;28;20068;-36
2023/01/25 00:09:04;;;;;;;47.45;28.13;;;0.00;99.90;;;;;;5068051;28;20040;-36
2023/01/25 00:11:29;;;;;;;45.00;27.52;;;0.00;99.90;;;;;;5068325;28;20040;-36
2023/01/25 00:13:56;;;;;;;46.22;27.25;;;0.10;99.90;;;;;;5068179;28;20048;-36
2023/01/25 00:16:22;;;;;;;49.75;28.85;;;0.30;99.90;;;;;;5068215;28;20132;-36
2023/01/25 00:18:49;;;;;;;45.53;27.67;;;0.10;99.90;;;;;;5068742;28;20040;-36
2023/01/25 00:21:21;;;;;;;46.55;27.65;;;0.00;99.90;;;;;;5068639;28;20105;-36
2023/01/25 00:23:47;;;;;;;44.33;27.50;;;0.10;99.90;;;;;;5049681;28;20076;-37
2023/01/25 00:26:13;;;;;;;46.83;27.77;;;0.00;99.90;;;;;;5050007;28;20498;-37
2023/01/25 00:28:39;;;;;;;47.25;28.88;;;0.10;99.90;;;;;;5067851;28;20717;-37
2023/01/25 00:31:10;;;;;;;46.75;28.08;;;0.00;99.90;;;;;;5068084;28;20048;-38
2023/01/25 00:33:49;;;;;;;44.33;26.63;;;0.00;99.90;;;;;;5067672;28;20082;-37
2023/01/25 00:36:40;;;;;;;47.13;27.67;;;0.00;99.90;;;;;;5050298;28;20452;-37
2023/01/25 00:39:10;;;;;;;45.05;25.65;;;1.70;99.90;;;;;;5068484;28;20155;-37
2023/01/25 00:41:36;;;;;;;49.75;28.42;;;0.00;99.90;;;;;;5067734;28;20119;-37
2023/01/25 00:44:02;;;;;;;50.15;28.55;;;0.00;99.90;;;;;;5068311;28;20630;-37
2023/01/25 00:46:28;;;;;;;51.80;29.27;;;0.00;99.90;;;;;;5068322;28;20193;-37
2023/01/25 00:48:54;;;;;;;49.53;27.63;;;0.00;99.90;;;;;;5049616;28;20044;-37
2023/01/25 00:51:21;;;;;;;51.88;29.52;;;-0.10;99.90;;;;;;5067768;28;20055;-36
2023/01/25 00:53:47;;;;;;;48.80;27.83;;;-0.10;99.90;;;;;;5067746;28;20044;-36
2023/01/25 00:56:12;;;;;;;48.83;26.92;;;0.00;99.90;;;;;;5067360;28;20044;-36
2023/01/25 00:58:39;;;;;;;54.30;29.67;;;-0.10;99.90;;;;;;5067660;28;20118;-36
2023/01/25 01:01:05;;;;;;;48.60;27.85;;;-0.10;99.90;;;;;;5067782;28;20657;-37
2023/01/25 01:03:31;;;;;;;48.20;27.58;;;-0.10;99.90;;;;;;5067829;28;20101;-36
2023/01/25 01:06:03;;;;;;;51.58;29.48;;;0.00;99.90;;;;;;5066050;28;20037;-36
2023/01/25 01:08:31;;;;;;;50.45;28.42;;;0.00;99.90;;;;;;5067892;28;20059;-36
2023/01/25 01:10:59;;;;;;;51.85;28.38;;;0.00;99.90;;;;;;5067907;28;20115;-36
2023/01/25 01:13:26;;;;;;;49.63;28.95;;;-0.10;99.90;;;;;;5067379;28;20098;-36
2023/01/25 01:15:51;;;;;;;51.33;29.45;;;1.10;99.90;;;;;;5067583;28;20460;-37
2023/01/25 01:18:17;;;;;;;50.35;29.27;;;0.00;99.90;;;;;;5067116;28;20053;-36
2023/01/25 01:20:51;;;;;;;53.60;28.45;;;-0.10;99.90;;;;;;5067850;28;20060;-36
2023/01/25 01:23:17;;;;;;;48.78;30.15;;;-0.10;99.90;;;;;;5067480;28;20044;-37
2023/01/25 01:25:43;;;;;;;48.88;28.55;;;-0.10;99.90;;;;;;5067450;28;20064;-37
2023/01/25 01:28:08;;;;;;;52.17;28.77;;;0.00;99.90;;;;;;5067276;28;20394;-37
2023/01/25 01:30:36;;;;;;;50.65;29.50;;;-0.10;99.90;;;;;;5067303;28;20080;-37
2023/01/25 01:33:03;;;;;;;48.15;27.70;;;-0.10;99.90;;;;;;5066941;28;20133;-37
2023/01/25 01:35:29;;;;;;;53.92;31.02;;;-0.10;99.90;;;;;;5067269;28;20521;-37
2023/01/25 01:37:55;;;;;;;51.72;31.10;;;0.00;99.90;;;;;;5067295;28;20414;-37
2023/01/25 01:40:21;;;;;;;53.70;30.25;;;-0.10;99.90;;;;;;5048741;28;20048;-37
2023/01/25 01:43:01;;;;;;;51.63;30.00;;;0.10;99.90;;;;;;5067114;28;20121;-37
2023/01/25 01:45:42;;;;;;;51.85;29.45;;;-0.10;99.90;;;;;;5067157;28;20119;-36
2023/01/25 01:48:20;;;;;;;52.30;29.05;;;-0.10;99.90;;;;;;5065909;28;20510;-37
2023/01/25 01:50:48;;;;;;;51.92;29.27;;;0.00;99.90;;;;;;5067025;28;20059;-37
2023/01/25 01:53:14;;;;;;;56.58;31.20;;;0.00;99.90;;;;;;5066502;28;20079;-36
2023/01/25 01:55:40;;;;;;;53.33;30.35;;;0.00;99.90;;;;;;5066932;28;20064;-37
2023/01/25 01:58:06;;;;;;;52.47;31.50;;;0.00;99.90;;;;;;5067152;28;20052;-37
2023/01/25 02:00:35;;;;;;;52.35;29.67;;;0.00;99.90;;;;;;5066986;28;20497;-37
2023/01/25 02:03:01;;;;;;;54.88;29.98;;;-0.10;99.90;;;;;;5066872;28;20779;-36
2023/01/25 02:05:44;;;;;;;52.15;30.10;;;0.00;99.90;;;;;;5066957;28;20036;-36
2023/01/25 02:08:13;;;;;;;56.20;31.63;;;-0.10;99.90;;;;;;5066581;28;20134;-36
2023/01/25 02:10:41;;;;;;;54.25;31.65;;;0.00;99.90;;;;;;5066556;28;20121;-36
2023/01/25 02:13:06;;;;;;;56.30;31.67;;;0.00;99.90;;;;;;5066213;28;20477;-37
2023/01/25 02:15:48;;;;;;;56.45;31.83;;;0.00;99.90;;;;;;5066456;28;20050;-37
2023/01/25 02:18:14;;;;;;;55.67;31.42;;;-0.10;99.90;;;;;;5066315;28;20101;-36
2023/01/25 02:20:50;;;;;;;56.67;31.83;;;0.00;99.90;;;;;;5066142;28;20044;-37
2023/01/25 02:23:25;;;;;;;52.83;28.88;;;0.00;99.90;;;;;;5065947;28;20084;-37
2023/01/25 02:25:51;;;;;;;56.13;29.85;;;0.00;99.90;;;;;;5065657;28;20102;-36
2023/01/25 02:28:31;;;;;;;52.15;30.00;;;0.00;99.90;;;;;;5065335;28;20044;-36
2023/01/25 02:30:57;;;;;;;53.50;30.55;;;0.00;99.90;;;;;;5066040;28;20040;-37
2023/01/25 02:33:24;;;;;;;55.20;29.98;;;-0.10;99.90;;;;;;5064312;28;20060;-36
2023/01/25 02:35:56;;;;;;;52.90;30.92;;;0.00;99.90;;;;;;5065636;28;20048;-36
2023/01/25 02:38:22;;;;;;;54.38;30.55;;;0.10;99.90;;;;;;5047571;28;20055;-37
2023/01/25 02:40:54;;;;;;;52.83;30.55;;;0.00;99.90;;;;;;5066042;28;20037;-36
2023/01/25 02:43:21;;;;;;;51.97;30.13;;;0.00;99.90;;;;;;5065983;28;20036;-36
2023/01/25 02:45:53;;;;;;;55.40;30.10;;;0.00;99.90;;;;;;5066115;28;20607;-36
2023/01/25 02:48:19;;;;;;;54.33;31.80;;;0.00;99.90;;;;;;5066030;28;20498;-36
2023/01/25 02:50:47;;;;;;;53.40;29.73;;;0.00;99.90;;;;;;5066149;28;20040;-37
2023/01/25 02:53:13;;;;;;;50.33;29.63;;;-0.10;99.90;;;;;;5065707;28;20047;-36
2023/01/25 02:55:38;;;;;;;53.58;30.60;;;-0.10;99.90;;;;;;5065846;28;20131;-36
2023/01/25 02:58:04;;;;;;;52.60;29.80;;;-0.10;99.90;;;;;;5065517;28;20044;-36
2023/01/25 03:00:30;;;;;;;57.58;31.27;;;-0.20;99.90;;;;;;5065738;28;20044;-36
2023/01/25 03:02:55;;;;;;;54.53;30.25;;;-0.10;99.90;;;;;;5065750;28;20062;-36
2023/01/25 03:05:21;;;;;;;51.72;29.42;;;-0.10;99.90;;;;;;5065883;28;20053;-36
2023/01/25 03:07:47;;;;;;;52.92;30.58;;;-0.20;99.90;;;;;;5066053;28;20098;-36
2023/01/25 03:10:13;;;;;;;53.17;30.45;;;-0.20;99.90;;;;;;5065612;28;20127;-36
2023/01/25 03:12:38;;;;;;;53.67;29.20;;;-0.20;99.90;;;;;;5065986;28;20040;-36
2023/01/25 03:15:05;;;;;;;55.05;30.88;;;-0.50;99.90;;;;;;5065848;28;20496;-36
2023/01/25 03:17:30;;;;;;;56.85;30.95;;;-0.50;99.90;;;;;;5065525;28;20086;-36
2023/01/25 03:19:56;;;;;;;55.58;31.50;;;-0.50;99.90;;;;;;5066434;28;20041;-36
2023/01/25 03:22:22;;;;;;;58.13;31.85;;;-0.50;99.90;;;;;;5065999;28;20083;-36
2023/01/25 03:24:47;;;;;;;59.78;32.63;;;-0.50;99.90;;;;;;5066118;28;20420;-36
2023/01/25 03:27:15;;;;;;;55.75;32.33;;;-0.50;99.90;;;;;;5065791;28;20052;-36
2023/01/25 03:29:41;;;;;;;58.58;32.83;;;-0.60;99.90;;;;;;5065699;28;20049;-36
2023/01/25 03:32:07;;;;;;;56.70;33.20;;;-0.50;99.90;;;;;;5065397;28;20040;-36
2023/01/25 03:34:33;;;;;;;57.25;31.67;;;-0.60;99.90;;;;;;5064924;28;20397;-36
2023/01/25 03:36:59;;;;;;;60.92;34.05;;;-0.60;99.90;;;;;;5065198;28;20044;-36
2023/01/25 03:39:24;;;;;;;58.65;33.35;;;-0.60;99.90;;;;;;5069215;28;20128;-36
2023/01/25 03:41:50;;;;;;;59.53;33.70;;;0.40;99.90;;;;;;5069309;28;20044;-36
2023/01/25 03:44:16;;;;;;;58.00;32.17;;;-0.60;99.90;;;;;;5069346;28;20120;-36
2023/01/25 03:46:42;;;;;;;61.83;34.35;;;-0.60;99.90;;;;;;5069138;28;20044;-36
2023/01/25 03:49:08;;;;;;;60.38;33.58;;;-0.60;99.90;;;;;;5068714;28;20120;-37
2023/01/25 03:51:34;;;;;;;60.97;35.70;;;-0.60;99.90;;;;;;5068675;28;20040;-36
2023/01/25 03:54:00;;;;;;;60.95;34.88;;;-0.60;99.90;;;;;;5068905;28;20045;-36
2023/01/25 03:56:25;;;;;;;62.35;33.97;;;-0.50;99.90;;;;;;5068733;28;20433;-36
2023/01/25 03:58:51;;;;;;;64.53;36.00;;;-0.50;99.90;;;;;;5069161;28;20045;-36
2023/01/25 04:01:17;;;;;;;57.45;32.92;;;-0.50;99.90;;;;;;5069259;28;20079;-36
2023/01/25 04:03:42;;;;;;;59.53;33.22;;;-0.50;99.90;;;;;;5068835;28;20457;-36
2023/01/25 04:06:08;;;;;;;59.17;33.20;;;-0.50;99.90;;;;;;5069002;28;20375;-36
2023/01/25 04:08:35;;;;;;;56.22;31.80;;;-0.50;99.90;;;;;;5068787;28;20114;-36
2023/01/25 04:11:05;;;;;;;56.50;32.15;;;-0.60;99.90;;;;;;5068866;28;20044;-36
2023/01/25 04:13:34;;;;;;;57.92;31.63;;;-0.50;99.90;;;;;;5068767;28;20044;-36
2023/01/25 04:16:00;;;;;;;59.70;33.90;;;-0.60;99.90;;;;;;5068667;28;20045;-36
2023/01/25 04:18:25;;;;;;;63.10;33.92;;;-0.50;99.90;;;;;;5068483;28;20052;-36
2023/01/25 04:20:53;;;;;;;60.65;35.05;;;1.00;99.90;;;;;;5068918;28;20053;-36
2023/01/25 04:23:19;;;;;;;55.97;32.65;;;-0.50;99.90;;;;;;5069129;28;20083;-37
2023/01/25 04:25:59;;;;;;;58.60;33.60;;;-0.50;99.90;;;;;;5068402;28;20667;-36
2023/01/25 04:28:26;;;;;;;60.28;33.13;;;-0.50;99.90;;;;;;5068655;28;20055;-36
2023/01/25 04:30:53;;;;;;;57.35;32.38;;;-0.50;99.90;;;;;;5068248;28;20810;-36
2023/01/25 04:33:19;;;;;;;60.08;33.97;;;-0.50;99.90;;;;;;5067846;28;20608;-36
2023/01/25 04:35:45;;;;;;;60.60;34.72;;;-0.50;99.90;;;;;;5067580;28;20131;-36
2023/01/25 04:38:11;;;;;;;62.83;35.25;;;-0.50;99.90;;;;;;5067888;28;20040;-36
2023/01/25 04:40:37;;;;;;;66.47;37.35;;;-0.50;99.90;;;;;;5068344;28;20040;-36
2023/01/25 04:43:05;;;;;;;67.13;36.25;;;-0.50;99.90;;;;;;5068586;28;20093;-36
2023/01/25 04:45:31;;;;;;;65.93;35.75;;;-0.50;99.90;;;;;;5068319;28;20059;-36
2023/01/25 04:48:00;;;;;;;66.13;36.58;;;-0.50;99.90;;;;;;5068158;28;20037;-36
2023/01/25 04:50:26;;;;;;;68.82;38.00;;;-0.50;99.90;;;;;;5067816;28;20105;-36
2023/01/25 04:52:52;;;;;;;64.78;34.90;;;-0.50;99.90;;;;;;5068313;28;20071;-36
2023/01/25 04:55:17;;;;;;;65.25;35.25;;;-0.50;99.90;;;;;;5068614;28;20409;-36
2023/01/25 04:57:43;;;;;;;69.93;38.47;;;-0.50;99.90;;;;;;5067770;28;20071;-36
2023/01/25 05:00:09;;;;;;;63.92;35.90;;;-0.50;99.90;;;;;;5068149;28;20044;-36
2023/01/25 05:02:35;;;;;;;63.47;35.25;;;-0.50;99.90;;;;;;5067702;28;20049;-36
2023/01/25 05:05:01;;;;;;;65.28;35.60;;;-0.50;99.90;;;;;;5068330;28;20045;-36
2023/01/25 05:07:27;;;;;;;66.97;36.67;;;-0.50;99.90;;;;;;5068528;28;20036;-36
2023/01/25 05:09:52;;;;;;;68.95;36.95;;;-0.50;99.90;;;;;;5068175;28;20040;-36
2023/01/25 05:12:18;;;;;;;66.72;35.92;;;-0.50;99.90;;;;;;5068243;28;20151;-36
2023/01/25 05:14:44;;;;;;;66.53;36.53;;;-0.50;99.90;;;;;;5068262;28;20079;-36
2023/01/25 05:17:09;;;;;;;66.38;36.25;;;-0.50;99.90;;;;;;5067946;28;20425;-36
2023/01/25 05:19:35;;;;;;;65.57;35.22;;;-0.50;99.90;;;;;;5067250;28;20409;-36
2023/01/25 05:22:06;;;;;;;63.70;34.50;;;-0.50;99.90;;;;;;5067868;28;20090;-36
2023/01/25 05:24:33;;;;;;;62.40;31.98;;;-0.50;99.90;;;;;;5067661;28;20490;-36
2023/01/25 05:26:59;;;;;;;63.88;33.33;;;-0.50;99.90;;;;;;5067734;28;20044;-36
2023/01/25 05:29:35;;;;;;;57.35;32.15;;;-0.50;99.90;;;;;;5067752;28;20044;-36
2023/01/25 05:32:06;;;;;;;63.25;33.50;;;-0.50;99.90;;;;;;5067491;28;20052;-36
2023/01/25 05:34:33;;;;;;;65.07;35.38;;;-0.50;99.90;;;;;;5066923;28;20102;-36
2023/01/25 05:36:59;;;;;;;62.83;33.17;;;-0.50;99.90;;;;;;5067606;28;20044;-36
2023/01/25 05:39:25;;;;;;;62.50;34.03;;;-0.50;99.90;;;;;;5067888;28;20036;-36
2023/01/25 05:41:51;;;;;;;68.35;36.78;;;-0.50;99.90;;;;;;5067244;28;20431;-36
2023/01/25 05:44:16;;;;;;;64.20;35.05;;;-0.50;99.90;;;;;;5067669;28;20051;-36
2023/01/25 05:46:42;;;;;;;63.15;34.67;;;-0.50;99.90;;;;;;5065998;28;20036;-35
2023/01/25 05:49:09;;;;;;;65.32;33.17;;;-0.60;99.90;;;;;;5067645;28;20049;-35
2023/01/25 05:51:34;;;;;;;68.93;35.70;;;-0.50;99.90;;;;;;5067363;28;20044;-35
2023/01/25 05:54:01;;;;;;;63.58;33.72;;;-0.50;99.90;;;;;;5067198;28;20473;-35
2023/01/25 05:56:27;;;;;;;66.60;35.47;;;-0.40;99.90;;;;;;5048860;28;20822;-35
2023/01/25 05:58:54;;;;;;;67.18;34.88;;;-0.50;99.90;;;;;;5066925;28;20082;-35
2023/01/25 06:01:20;;;;;;;62.83;31.92;;;-0.50;99.90;;;;;;5066279;28;20603;-35
2023/01/25 06:03:47;;;;;;;62.47;34.22;;;-0.60;99.90;;;;;;5066720;28;20208;-35
2023/01/25 06:06:13;;;;;;;63.42;33.40;;;-0.50;99.90;;;;;;5067310;28;20084;-35
2023/01/25 06:08:38;;;;;;;62.03;33.78;;;-0.60;99.90;;;;;;5067056;28;20103;-35
2023/01/25 06:11:08;;;;;;;69.93;35.60;;;-0.60;99.90;;;;;;5067098;28;20156;-38
2023/01/25 06:13:34;;;;;;;67.57;35.20;;;-0.60;99.90;;;;;;5067273;28;20133;-38
2023/01/25 06:15:59;;;;;;;70.60;35.25;;;-0.60;99.90;;;;;;5067048;28;20818;-38
2023/01/25 06:18:25;;;;;;;62.00;33.63;;;-0.50;99.90;;;;;;5066811;28;20047;-38
2023/01/25 06:20:51;;;;;;;68.38;36.03;;;-0.60;99.90;;;;;;5066705;28;20039;-38
2023/01/25 06:23:17;;;;;;;67.88;34.45;;;-0.60;99.90;;;;;;5066828;28;20047;-38
2023/01/25 06:25:43;;;;;;;68.40;36.33;;;-0.50;99.90;;;;;;5066439;28;20052;-38
2023/01/25 06:28:09;;;;;;;67.03;35.22;;;-0.60;99.90;;;;;;5066639;28;20044;-38
2023/01/25 06:30:35;;;;;;;66.22;34.88;;;-0.50;99.90;;;;;;5066789;28;20040;-38
2023/01/25 06:33:00;;;;;;;60.65;32.70;;;-0.50;99.90;;;;;;5066148;28;20190;-38
2023/01/25 06:35:27;;;;;;;57.47;30.98;;;-0.50;99.90;;;;;;5066270;28;20493;-38
2023/01/25 06:37:57;;;;;;;60.78;33.55;;;-0.40;99.90;;;;;;5066187;28;20063;-38
2023/01/25 06:40:22;;;;;;;62.40;31.88;;;-0.60;99.90;;;;;;5066114;28;20645;-38
2023/01/25 06:42:48;;;;;;;61.58;32.55;;;-0.60;99.90;;;;;;5065871;28;20177;-38
2023/01/25 06:45:14;;;;;;;60.50;31.85;;;-0.60;99.90;;;;;;5066111;28;20056;-38
2023/01/25 06:47:40;;;;;;;59.78;33.47;;;-0.50;99.90;;;;;;5065893;28;20636;-38
2023/01/25 06:50:06;;;;;;;57.47;32.05;;;-0.60;99.90;;;;;;5065808;28;20478;-38
2023/01/25 06:52:35;;;;;;;58.17;31.40;;;-0.60;99.90;;;;;;5066032;28;20051;-38
2023/01/25 06:55:05;;;;;;;55.35;30.83;;;-0.60;99.90;;;;;;5065537;28;20466;-38
2023/01/25 06:57:31;;;;;;;56.80;30.52;;;-0.60;99.90;;;;;;5065874;28;20093;-38
2023/01/25 06:59:57;;;;;;;57.65;31.70;;;-0.50;99.90;;;;;;5066047;28;20044;-39
2023/01/25 07:02:22;;;;;;;52.13;29.17;;;-0.60;99.90;;;;;;5066104;28;20150;-39
2023/01/25 07:04:48;;;;;;;56.75;32.50;;;-0.20;99.90;;;;;;5066116;28;20049;-39
2023/01/25 07:07:14;;;;;;;55.25;29.70;;;-0.60;99.90;;;;;;5066017;28;20048;-39
2023/01/25 07:09:39;;;;;;;55.30;29.60;;;-0.60;99.90;;;;;;5065927;28;20113;-39
2023/01/25 07:12:05;;;;;;;51.28;27.67;;;0.40;99.90;;;;;;5066036;28;20044;-39
2023/01/25 07:14:32;;;;;;;53.17;29.73;;;0.00;99.90;;;;;;5070469;28;20037;-39
2023/01/25 07:16:58;;;;;;;52.90;28.67;;;0.50;99.90;;;;;;5070061;28;20490;-39
2023/01/25 07:19:23;;;;;;;53.35;29.70;;;-0.60;99.90;;;;;;5069956;28;20044;-39
2023/01/25 07:21:49;;;;;;;55.00;30.63;;;-0.60;99.90;;;;;;5070067;28;20040;-39
2023/01/25 07:24:17;;;;;;;54.58;30.85;;;-0.60;99.90;;;;;;5069618;28;20113;-39
2023/01/25 07:26:43;;;;;;;53.33;28.48;;;-0.60;99.90;;;;;;5069708;28;20040;-39
2023/01/25 07:29:14;;;;;;;55.10;29.67;;;-0.60;99.90;;;;;;5069477;28;20059;-39
2023/01/25 07:31:41;;;;;;;56.85;31.00;;;-0.60;99.90;;;;;;5069908;28;20143;-39
2023/01/25 07:34:09;;;;;;;56.15;30.63;;;0.90;99.90;;;;;;5067565;28;20428;-39
2023/01/25 07:36:36;;;;;;;53.90;28.83;;;-0.60;99.90;;;;;;5069969;28;20075;-39
2023/01/25 07:39:02;;;;;;;54.35;29.27;;;-0.60;99.90;;;;;;5051527;28;20059;-39
2023/01/25 07:41:27;;;;;;;59.50;32.47;;;-0.60;99.90;;;;;;5069525;28;20044;-39
2023/01/25 07:43:53;;;;;;;55.05;30.35;;;-0.60;99.90;;;;;;5069218;28;20037;-39
2023/01/25 07:46:19;;;;;;;55.83;30.30;;;-0.60;99.90;;;;;;5069160;28;20075;-39
2023/01/25 07:48:49;;;;;;;56.25;30.73;;;-0.60;99.90;;;;;;5069236;28;20060;-39
2023/01/25 07:51:25;;;;;;;56.70;30.83;;;-0.60;99.90;;;;;;5069551;28;20044;-39
2023/01/25 07:54:03;;;;;;;54.80;30.70;;;-0.60;99.90;;;;;;5069697;28;20369;-39
2023/01/25 07:56:39;;;;;;;54.53;28.95;;;-0.60;99.90;;;;;;5069529;28;20048;-39
2023/01/25 07:59:08;;;;;;;55.03;30.02;;;-0.60;99.90;;;;;;5069436;28;20068;-39
2023/01/25 08:01:35;;;;;;;61.75;31.75;;;-0.60;99.90;;;;;;5069700;28;20051;-39
2023/01/25 08:04:03;;;;;;;57.28;29.55;;;-0.60;99.90;;;;;;5069541;28;20032;-39
2023/01/25 08:06:34;;;;;;;57.42;29.95;;;-0.60;99.90;;;;;;5069838;28;20483;-39
2023/01/25 08:09:02;;;;;;;59.53;33.05;;;-0.60;99.90;;;;;;5069875;28;20747;-39
2023/01/25 08:11:29;;;;;;;59.50;31.17;;;-0.60;99.90;;;;;;5069615;28;20044;-39
2023/01/25 08:13:55;;;;;;;58.80;31.30;;;-0.60;99.90;;;;;;5051431;28;20394;-39
2023/01/25 08:16:25;;;;;;;60.05;31.45;;;-0.60;99.90;;;;;;5068556;28;20049;-39
2023/01/25 08:18:53;;;;;;;57.85;30.67;;;-0.70;99.90;;;;;;5069195;28;20056;-39
2023/01/25 08:21:20;;;;;;;61.05;30.70;;;-0.60;99.90;;;;;;5069331;28;20041;-39
2023/01/25 08:23:46;;;;;;;59.45;31.15;;;-0.70;99.90;;;;;;5068211;28;20486;-39
2023/01/25 08:26:15;;;;;;;57.80;30.50;;;-0.60;99.90;;;;;;5068437;28;20040;-39
2023/01/25 08:28:41;;;;;;;57.05;30.48;;;-0.60;99.90;;;;;;5068666;28;20889;-39
2023/01/25 08:31:13;;;;;;;60.65;31.55;;;-0.60;99.90;;;;;;5068640;28;20053;-39
2023/01/25 08:33:39;;;;;;;60.97;32.28;;;-0.60;99.90;;;;;;5068521;28;20056;-39
2023/01/25 08:36:07;;;;;;;58.08;29.02;;;-0.60;99.90;;;;;;5068573;28;20043;-39
2023/01/25 08:38:33;;;;;;;60.33;32.58;;;-0.60;99.90;;;;;;5068685;28;20056;-39
2023/01/25 08:41:11;;;;;;;61.40;31.13;;;-0.60;99.90;;;;;;5068518;28;20032;-39
2023/01/25 08:43:37;;;;;;;58.75;31.70;;;-0.60;99.90;;;;;;5068774;28;20083;-39
2023/01/25 08:46:03;;;;;;;64.05;32.15;;;-0.60;99.90;;;;;;5067959;28;20139;-39
2023/01/25 08:48:29;;;;;;;61.50;31.80;;;-0.50;99.90;;;;;;5068484;28;20052;-39
2023/01/25 08:50:55;;;;;;;60.67;31.42;;;-0.50;99.90;;;;;;5068996;28;20079;-39
2023/01/25 08:53:21;;;;;;;59.67;30.60;;;-0.50;99.90;;;;;;5068641;28;20701;-39
2023/01/25 08:55:47;;;;;;;62.67;32.67;;;-0.50;99.90;;;;;;5068430;28;20078;-39
2023/01/25 08:58:15;;;;;;;60.75;31.25;;;-0.50;99.90;;;;;;5067981;28;20072;-39
2023/01/25 09:00:42;;;;;;;61.25;31.25;;;1.20;99.90;;;;;;5067825;28;20508;-38
2023/01/25 09:03:10;;;;;;;60.85;31.50;;;-0.50;99.90;;;;;;5067641;28;20044;-39
2023/01/25 09:05:37;;;;;;;54.83;31.13;;;-0.50;99.90;;;;;;5067842;28;20078;-39
2023/01/25 09:08:07;;;;;;;59.72;31.17;;;-0.50;99.90;;;;;;5067814;28;20543;-39
2023/01/25 09:10:33;;;;;;;60.45;31.17;;;0.00;99.90;;;;;;5067968;28;20044;-39
2023/01/25 09:12:59;;;;;;;59.78;32.22;;;-0.40;99.90;;;;;;5068083;28;20044;-39
2023/01/25 09:15:25;;;;;;;57.42;31.38;;;-0.40;99.90;;;;;;5067778;28;20040;-38
2023/01/25 09:17:55;;;;;;;56.88;30.13;;;-0.40;99.90;;;;;;5068003;28;20040;-39
2023/01/25 09:20:22;;;;;;;57.08;29.92;;;-0.40;99.90;;;;;;5067258;28;20044;-39
2023/01/25 09:22:47;;;;;;;56.97;30.23;;;-0.40;99.90;;;;;;5067330;28;20810;-39
2023/01/25 09:25:14;;;;;;;58.15;32.28;;;-0.40;99.90;;;;;;5067797;28;20045;-39
2023/01/25 09:27:39;;;;;;;57.67;32.08;;;-0.40;99.90;;;;;;5068049;28;20102;-39
2023/01/25 09:30:07;;;;;;;58.85;30.80;;;-0.40;99.90;;;;;;5067493;28;20048;-39
2023/01/25 09:32:32;;;;;;;61.13;32.13;;;-0.40;99.90;;;;;;5057586;28;20501;-39
2023/01/25 09:34:58;;;;;;;57.17;31.25;;;0.60;99.90;;;;;;5059742;28;20060;-39
2023/01/25 09:37:24;;;;;;;62.30;32.78;;;-0.40;99.90;;;;;;5064322;28;20056;-39
2023/01/25 09:39:49;;;;;;;57.78;31.80;;;-0.40;99.90;;;;;;5064716;28;20131;-39
2023/01/25 09:42:31;;;;;;;57.03;29.80;;;-0.40;99.90;;;;;;5046464;28;20481;-39
2023/01/25 09:45:15;;;;;;;61.47;31.53;;;-0.40;99.90;;;;;;5064622;28;20040;-38
2023/01/25 09:47:49;;;;;;;60.15;31.10;;;-0.30;99.90;;;;;;5064275;28;20538;-38
2023/01/25 09:50:15;;;;;;;52.65;28.17;;;-0.40;99.90;;;;;;5064017;28;20043;-39
2023/01/25 09:52:52;;;;;;;52.67;27.15;;;-0.30;99.90;;;;;;5064911;28;20048;-39
2023/01/25 09:55:22;;;;;;;56.20;29.23;;;-0.30;99.90;;;;;;5064357;28;20048;-39
2023/01/25 09:57:52;;;;;;;55.00;29.27;;;-0.40;99.90;;;;;;5064849;28;20053;-39
2023/01/25 10:00:27;;;;;;;61.50;30.55;;;-0.40;99.90;;;;;;5064460;28;20907;-39
2023/01/25 10:03:21;;;;;;;55.47;28.55;;;0.60;99.90;;;;;;5064614;28;20128;-39
2023/01/25 10:05:51;;;;;;;56.83;29.35;;;-0.40;99.90;;;;;;5064310;28;20089;-49
2023/01/25 10:08:31;;;;;;;52.28;27.30;;;-0.40;99.90;;;;;;5010742;28;20053;-38
2023/01/25 10:11:30;;;;;;;52.55;28.65;;;0.30;99.90;;;;;;5038686;28;20114;-38
2023/01/25 10:13:57;;;;;;;56.47;29.63;;;-0.40;99.90;;;;;;5025588;28;20067;-39
2023/01/25 10:16:28;;;;;;;56.25;28.90;;;-0.40;99.90;;;;;;5041471;28;20045;-40
2023/01/25 10:19:18;;;;;;;58.42;30.10;;;-0.30;99.90;;;;;;5041223;28;20509;-39
2023/01/25 10:21:48;;;;;;;54.83;28.13;;;-0.80;99.90;;;;;;5041920;28;20037;-38
2023/01/25 10:24:28;;;;;;;55.67;29.55;;;-0.40;99.90;;;;;;5041659;28;20047;-36
2023/01/25 10:27:08;;;;;;;59.50;29.80;;;-0.30;99.90;;;;;;5041658;28;20045;-36
2023/01/25 10:29:36;;;;;;;56.80;28.98;;;-0.30;99.90;;;;;;5041396;28;20585;-36
2023/01/25 10:32:15;;;;;;;58.40;29.90;;;-0.30;99.90;;;;;;5041444;28;20069;-36
2023/01/25 10:34:49;;;;;;;55.60;27.35;;;-0.30;99.90;;;;;;5029562;28;20045;-37
2023/01/25 10:37:21;;;;;;;59.67;30.15;;;-0.30;99.90;;;;;;5040706;28;20029;-37
2023/01/25 10:40:10;;;;;;;57.13;28.48;;;-0.40;99.90;;;;;;5040884;28;20045;-36
2023/01/25 10:42:43;;;;;;;50.97;25.13;;;-0.30;99.90;;;;;;5027994;28;20653;-38
2023/01/25 10:45:12;;;;;;;;;;;-0.30;99.90;;;;;;5041321;28;20075;-37
2023/01/25 10:47:41;;;;;;;55.47;27.58;;;-0.30;99.90;;;;;;5040433;28;19917;-37
2023/01/25 10:50:07;;;;;;;55.33;29.38;;;-0.30;99.90;;;;;;5040240;28;20051;-38
2023/01/25 10:52:36;;;;;;;56.30;28.25;;;-0.30;99.90;;;;;;5040237;28;20049;-38
2023/01/25 10:55:13;;;;;;;59.72;29.75;;;-0.30;99.90;;;;;;5041032;28;20053;-38
2023/01/25 10:58:02;;;;;;;57.75;29.45;;;-0.30;99.90;;;;;;5040466;28;20084;-38
2023/01/25 11:00:35;;;;;;;54.70;28.70;;;-0.30;99.90;;;;;;5040261;28;20094;-39
2023/01/25 11:03:00;;;;;;;;;;;-0.30;99.90;;;;;;5041678;28;20041;-38
2023/01/25 11:05:32;;;;;;;54.15;27.00;;;0.40;99.90;;;;;;5040860;28;20366;-37
2023/01/25 11:08:15;;;;;;;56.55;27.27;;;2.40;99.90;;;;;;5021031;28;20052;-38
2023/01/25 11:10:44;;;;;;;57.17;28.00;;;-2.20;99.90;;;;;;5040689;28;20087;-38
2023/01/25 11:13:12;;;;;;;54.83;28.27;;;-0.30;99.90;;;;;;5040931;28;20053;-38
2023/01/25 11:15:47;;;;;;;55.13;27.33;;;-0.30;99.90;;;;;;5040513;28;20751;-38
2023/01/25 11:18:20;;;;;;;55.90;27.83;;;-0.30;99.90;;;;;;5022732;28;20077;-39
2023/01/25 11:20:47;;;;;;;55.58;27.73;;;-0.30;99.90;;;;;;5040430;28;20111;-39
2023/01/25 11:23:25;;;;;;;51.40;27.70;;;-0.30;99.90;;;;;;5022508;28;20158;-40
2023/01/25 11:25:51;;;;;;;50.13;27.63;;;-0.30;99.90;;;;;;5006223;28;20098;-39
2023/01/25 11:28:23;;;;;;;53.38;27.38;;;-0.30;99.90;;;;;;5040910;28;20473;-39
2023/01/25 11:30:51;;;;;;;45.60;21.42;;;-0.30;99.90;;;;;;5040631;28;20056;-38
2023/01/25 11:33:18;;;;;;;56.78;27.70;;;-0.30;99.90;;;;;;5040380;28;20112;-39
2023/01/25 11:36:05;;;;;;;54.85;26.88;;;-0.30;99.90;;;;;;5015873;28;20037;-38
2023/01/25 11:38:31;;;;;;;51.55;26.17;;;-0.30;99.90;;;;;;5043384;28;20045;-38
2023/01/25 11:41:28;;;;;;;51.17;25.10;;;-0.30;99.90;;;;;;5025599;28;20049;-40
2023/01/25 11:44:20;;;;;;;54.13;27.25;;;-0.30;99.90;;;;;;5043494;28;20746;-40
2023/01/25 11:46:57;;;;;;;55.90;26.90;;;-0.40;99.90;;;;;;5025678;28;20041;-38
2023/01/25 11:50:00;;;;;;;54.88;27.33;;;-0.30;99.90;;;;;;5043041;28;20547;-38
2023/01/25 11:52:50;;;;;;;59.17;27.75;;;-0.30;99.90;;;;;;5043168;28;20055;-38
2023/01/25 11:55:31;;;;;;;57.05;28.83;;;-0.30;99.90;;;;;;5043607;28;20126;-37
2023/01/25 11:58:35;;;;;;;50.58;24.90;;;-0.30;99.90;;;;;;5043506;28;20816;-37
2023/01/25 12:01:04;;;;;;;49.78;24.67;;;-0.30;99.90;;;;;;5047206;28;20052;-37
2023/01/25 12:03:35;;;;;;;46.88;23.13;;;-0.30;99.90;;;;;;5045924;28;20132;-37
2023/01/25 12:06:38;;;;;;;48.25;24.30;;;-0.40;99.90;;;;;;5047511;28;20060;-38
2023/01/25 12:09:21;;;;;;;46.72;23.63;;;-0.40;99.90;;;;;;5027686;28;20052;-37
2023/01/25 12:12:01;;;;;;;46.17;22.55;;;-0.40;99.90;;;;;;5028491;28;20090;-38
2023/01/25 12:15:04;;;;;;;45.60;21.65;;;-0.40;99.90;;;;;;5047460;28;20060;-37
2023/01/25 12:17:38;;;;;;;;;;;-0.40;99.90;;;;;;5029397;28;20045;-37
2023/01/25 12:20:21;;;;;;;52.60;25.95;;;-0.40;99.90;;;;;;5046690;28;19916;-41
2023/01/25 12:22:55;;;;;;;51.15;24.58;;;-0.40;99.90;;;;;;5046758;28;20449;-41
2023/01/25 12:25:42;;;;;;;53.53;27.05;;;-0.40;99.90;;;;;;5047504;28;20123;-42
2023/01/25 12:28:30;;;;;;;47.33;23.65;;;-0.40;99.90;;;;;;5046998;28;20102;-42
2023/01/25 12:31:18;;;;;;;49.13;23.77;;;-0.40;99.90;;;;;;5046356;28;20509;-41
2023/01/25 12:33:57;;;;;;;54.17;24.77;;;-0.40;99.90;;;;;;5046706;28;20057;-47
2023/01/25 12:36:26;;;;;;;51.35;25.45;;;0.30;99.90;;;;;;5046566;28;20037;-41
2023/01/25 12:39:06;;;;;;;54.55;27.63;;;-0.40;99.90;;;;;;5046094;28;20052;-38
2023/01/25 12:41:50;;;;;;;49.47;24.85;;;-0.40;99.90;;;;;;5046483;28;20355;-38
2023/01/25 12:44:19;;;;;;;51.60;22.90;;;-0.40;99.90;;;;;;5046273;28;20037;-41